RYR1SR LEBL-LEMH
Flight info
| Callsign | RYR1SR |
|---|---|
| Flight time | 0h 30m |
| Altitude | 19000 |
| Route | DUNES Q700 SARGO |
| Aircraft | B738/M-SDE2E3FGHIRWXY/LB1 |
Departure
| Time | 2026-04-30 12:21 |
|---|---|
| Airport | Josep Tarradellas Barcelona-El Prat Airport (LEBL) |
Arrival
| Time | 2026-04-30 12:52 |
|---|---|
| Airport | Menorca Airport (LEMH) |
| Time | Latitude | Longitude | Altitude | Speed | Heading |
|---|---|---|---|---|---|
| 2026-04-30 12:04 | 41.30140 | 2.07525 | 20 ft | 0 kts | 279° |
| 2026-04-30 12:15 | 41.30138 | 2.07539 | 20 ft | 4 kts | 279° |
| 2026-04-30 12:15 | 41.30136 | 2.07574 | 20 ft | 4 kts | 249° |
| 2026-04-30 12:16 | 41.30140 | 2.07586 | 20 ft | 2 kts | 159° |
| 2026-04-30 12:16 | 41.30144 | 2.07583 | 20 ft | 0 kts | 158° |
| 2026-04-30 12:18 | 41.30141 | 2.07585 | 20 ft | 2 kts | 158° |
| 2026-04-30 12:18 | 41.30112 | 2.07601 | 21 ft | 6 kts | 157° |
| 2026-04-30 12:18 | 41.30068 | 2.07627 | 20 ft | 8 kts | 155° |
| 2026-04-30 12:19 | 41.30013 | 2.07683 | 17 ft | 12 kts | 142° |
| 2026-04-30 12:19 | 41.29924 | 2.07724 | 16 ft | 14 kts | 198° |
| 2026-04-30 12:19 | 41.29872 | 2.07605 | 15 ft | 17 kts | 245° |
| 2026-04-30 12:19 | 41.29816 | 2.07443 | 15 ft | 22 kts | 245° |
| 2026-04-30 12:20 | 41.29749 | 2.07244 | 15 ft | 25 kts | 247° |
| 2026-04-30 12:20 | 41.29676 | 2.07068 | 15 ft | 15 kts | 213° |
| 2026-04-30 12:20 | 41.29576 | 2.07102 | 14 ft | 16 kts | 155° |
| 2026-04-30 12:20 | 41.29494 | 2.07180 | 16 ft | 15 kts | 103° |
| 2026-04-30 12:21 | 41.29524 | 2.07312 | 19 ft | 22 kts | 66° |
| 2026-04-30 12:21 | 41.29712 | 2.07859 | 17 ft | 107 kts | 65° |
| 2026-04-30 12:21 | 41.30117 | 2.09033 | 207 ft | 160 kts | 65° |
| 2026-04-30 12:21 | 41.30593 | 2.10403 | 1164 ft | 163 kts | 65° |
| 2026-04-30 12:22 | 41.31084 | 2.11847 | 1965 ft | 185 kts | 65° |
| 2026-04-30 12:22 | 41.31663 | 2.13539 | 2300 ft | 217 kts | 66° |
| 2026-04-30 12:22 | 41.32315 | 2.15435 | 2825 ft | 231 kts | 66° |
| 2026-04-30 12:22 | 41.32959 | 2.17433 | 3518 ft | 239 kts | 75° |
| 2026-04-30 12:23 | 41.32969 | 2.19691 | 4011 ft | 257 kts | 108° |
| 2026-04-30 12:23 | 41.31968 | 2.21715 | 4864 ft | 264 kts | 136° |
| 2026-04-30 12:23 | 41.30828 | 2.23591 | 5893 ft | 267 kts | 116° |
| 2026-04-30 12:23 | 41.30080 | 2.25870 | 6887 ft | 271 kts | 114° |
| 2026-04-30 12:24 | 41.29303 | 2.28194 | 7801 ft | 278 kts | 115° |
| 2026-04-30 12:24 | 41.28482 | 2.30532 | 8754 ft | 282 kts | 117° |
| 2026-04-30 12:24 | 41.27605 | 2.32936 | 9672 ft | 287 kts | 117° |
| 2026-04-30 12:24 | 41.26706 | 2.35340 | 10498 ft | 296 kts | 118° |
| 2026-04-30 12:25 | 41.25734 | 2.37887 | 10801 ft | 323 kts | 119° |
| 2026-04-30 12:25 | 41.24689 | 2.40602 | 11411 ft | 335 kts | 119° |
| 2026-04-30 12:25 | 41.23614 | 2.43382 | 12235 ft | 341 kts | 119° |
| 2026-04-30 12:25 | 41.22520 | 2.46196 | 13078 ft | 345 kts | 119° |
| 2026-04-30 12:26 | 41.21405 | 2.49056 | 13886 ft | 350 kts | 120° |
| 2026-04-30 12:26 | 41.20281 | 2.51936 | 14752 ft | 352 kts | 120° |
| 2026-04-30 12:26 | 41.19154 | 2.54814 | 15765 ft | 349 kts | 120° |
| 2026-04-30 12:26 | 41.18037 | 2.57661 | 16731 ft | 347 kts | 120° |
| 2026-04-30 12:27 | 41.16917 | 2.60515 | 17557 ft | 349 kts | 120° |
| 2026-04-30 12:27 | 41.15809 | 2.63335 | 18386 ft | 350 kts | 120° |
| 2026-04-30 12:27 | 41.14676 | 2.66215 | 18873 ft | 353 kts | 120° |
| 2026-04-30 12:27 | 41.13434 | 2.69003 | 19102 ft | 351 kts | 127° |
| 2026-04-30 12:28 | 41.11991 | 2.71615 | 19093 ft | 349 kts | 130° |
| 2026-04-30 12:28 | 41.10498 | 2.74142 | 19102 ft | 347 kts | 131° |
| 2026-04-30 12:28 | 41.09003 | 2.76651 | 19107 ft | 347 kts | 131° |
| 2026-04-30 12:28 | 41.07519 | 2.79165 | 19107 ft | 346 kts | 130° |
| 2026-04-30 12:29 | 41.06044 | 2.81690 | 19100 ft | 346 kts | 130° |
| 2026-04-30 12:29 | 41.04580 | 2.84220 | 19100 ft | 346 kts | 130° |
| 2026-04-30 12:29 | 41.03117 | 2.86758 | 19100 ft | 347 kts | 130° |
| 2026-04-30 12:29 | 41.01654 | 2.89305 | 19096 ft | 347 kts | 130° |
| 2026-04-30 12:30 | 41.00194 | 2.91848 | 19095 ft | 348 kts | 130° |
| 2026-04-30 12:30 | 40.98729 | 2.94400 | 19093 ft | 348 kts | 130° |
| 2026-04-30 12:30 | 40.97282 | 2.96918 | 19094 ft | 349 kts | 130° |
| 2026-04-30 12:30 | 40.95813 | 2.99474 | 19094 ft | 349 kts | 130° |
| 2026-04-30 12:31 | 40.94343 | 3.02031 | 19094 ft | 349 kts | 130° |
| 2026-04-30 12:31 | 40.92871 | 3.04589 | 19093 ft | 350 kts | 130° |
| 2026-04-30 12:31 | 40.91396 | 3.07148 | 19093 ft | 350 kts | 130° |
| 2026-04-30 12:31 | 40.89921 | 3.09706 | 19091 ft | 350 kts | 130° |
| 2026-04-30 12:32 | 40.88444 | 3.12265 | 19083 ft | 350 kts | 130° |
| 2026-04-30 12:32 | 40.86966 | 3.14824 | 19083 ft | 350 kts | 130° |
| 2026-04-30 12:32 | 40.85553 | 3.17448 | 19073 ft | 352 kts | 124° |
| 2026-04-30 12:32 | 40.84305 | 3.20233 | 19087 ft | 352 kts | 122° |
| 2026-04-30 12:33 | 40.83119 | 3.23061 | 19085 ft | 352 kts | 121° |
| 2026-04-30 12:33 | 40.81943 | 3.25900 | 19084 ft | 352 kts | 121° |
| 2026-04-30 12:33 | 40.80761 | 3.28731 | 19082 ft | 352 kts | 121° |
| 2026-04-30 12:33 | 40.79583 | 3.31518 | 19083 ft | 352 kts | 122° |
| 2026-04-30 12:34 | 40.78389 | 3.34318 | 19059 ft | 348 kts | 122° |
| 2026-04-30 12:34 | 40.77200 | 3.37087 | 18830 ft | 345 kts | 122° |
| 2026-04-30 12:34 | 40.76017 | 3.39827 | 18541 ft | 343 kts | 122° |
| 2026-04-30 12:34 | 40.74837 | 3.42549 | 18215 ft | 340 kts | 122° |
| 2026-04-30 12:35 | 40.73665 | 3.45248 | 17887 ft | 337 kts | 122° |
| 2026-04-30 12:35 | 40.72502 | 3.47923 | 17555 ft | 335 kts | 122° |
| 2026-04-30 12:35 | 40.71347 | 3.50576 | 17218 ft | 333 kts | 122° |
| 2026-04-30 12:35 | 40.70198 | 3.53215 | 16890 ft | 331 kts | 122° |
| 2026-04-30 12:36 | 40.69056 | 3.55834 | 16559 ft | 329 kts | 122° |
| 2026-04-30 12:36 | 40.67920 | 3.58436 | 16223 ft | 327 kts | 122° |
| 2026-04-30 12:36 | 40.66804 | 3.60990 | 15891 ft | 325 kts | 122° |
| 2026-04-30 12:36 | 40.65681 | 3.63559 | 15570 ft | 323 kts | 122° |
| 2026-04-30 12:37 | 40.64563 | 3.66117 | 15239 ft | 321 kts | 122° |
| 2026-04-30 12:37 | 40.63451 | 3.68655 | 14910 ft | 320 kts | 122° |
| 2026-04-30 12:37 | 40.62342 | 3.71184 | 14585 ft | 318 kts | 122° |
| 2026-04-30 12:37 | 40.61243 | 3.73691 | 14261 ft | 316 kts | 122° |
| 2026-04-30 12:38 | 40.60147 | 3.76188 | 13929 ft | 314 kts | 122° |
| 2026-04-30 12:38 | 40.59058 | 3.78668 | 13601 ft | 312 kts | 122° |
| 2026-04-30 12:38 | 40.57974 | 3.81133 | 13278 ft | 311 kts | 122° |
| 2026-04-30 12:38 | 40.56894 | 3.83585 | 12956 ft | 309 kts | 122° |
| 2026-04-30 12:39 | 40.55820 | 3.86022 | 12634 ft | 307 kts | 122° |
| 2026-04-30 12:39 | 40.54752 | 3.88444 | 12315 ft | 305 kts | 122° |
| 2026-04-30 12:39 | 40.53690 | 3.90854 | 11997 ft | 304 kts | 122° |
| 2026-04-30 12:39 | 40.52634 | 3.93247 | 11678 ft | 302 kts | 122° |
| 2026-04-30 12:40 | 40.51580 | 3.95631 | 11369 ft | 300 kts | 122° |
| 2026-04-30 12:40 | 40.50483 | 3.97945 | 11045 ft | 297 kts | 132° |
| 2026-04-30 12:40 | 40.48870 | 3.99545 | 10738 ft | 289 kts | 157° |
| 2026-04-30 12:40 | 40.47015 | 4.00407 | 10438 ft | 286 kts | 165° |
| 2026-04-30 12:41 | 40.45081 | 4.01092 | 10186 ft | 281 kts | 166° |
| 2026-04-30 12:41 | 40.43237 | 4.01713 | 10017 ft | 274 kts | 166° |
| 2026-04-30 12:41 | 40.41389 | 4.02337 | 9713 ft | 274 kts | 166° |
| 2026-04-30 12:41 | 40.39551 | 4.02964 | 9427 ft | 272 kts | 166° |
| 2026-04-30 12:42 | 40.37728 | 4.03595 | 9138 ft | 271 kts | 165° |
| 2026-04-30 12:42 | 40.35913 | 4.04225 | 8849 ft | 269 kts | 165° |
| 2026-04-30 12:42 | 40.34109 | 4.04856 | 8563 ft | 267 kts | 165° |
| 2026-04-30 12:42 | 40.32319 | 4.05485 | 8282 ft | 266 kts | 165° |
| 2026-04-30 12:43 | 40.30541 | 4.06111 | 7997 ft | 264 kts | 165° |
| 2026-04-30 12:43 | 40.28783 | 4.06732 | 7715 ft | 261 kts | 165° |
| 2026-04-30 12:43 | 40.27030 | 4.07351 | 7434 ft | 260 kts | 164° |
| 2026-04-30 12:43 | 40.25289 | 4.07965 | 7148 ft | 258 kts | 164° |
| 2026-04-30 12:44 | 40.23563 | 4.08574 | 6879 ft | 256 kts | 164° |
| 2026-04-30 12:44 | 40.21872 | 4.09170 | 6604 ft | 254 kts | 164° |
| 2026-04-30 12:44 | 40.20170 | 4.09770 | 6351 ft | 252 kts | 164° |
| 2026-04-30 12:44 | 40.18496 | 4.10358 | 6136 ft | 248 kts | 164° |
| 2026-04-30 12:45 | 40.16836 | 4.10941 | 5876 ft | 247 kts | 164° |
| 2026-04-30 12:45 | 40.15184 | 4.11524 | 5586 ft | 246 kts | 164° |
| 2026-04-30 12:45 | 40.13530 | 4.12107 | 5296 ft | 246 kts | 164° |
| 2026-04-30 12:45 | 40.11881 | 4.12689 | 5016 ft | 245 kts | 164° |
| 2026-04-30 12:46 | 40.10340 | 4.13627 | 4569 ft | 250 kts | 136° |
| 2026-04-30 12:46 | 40.09507 | 4.15589 | 4310 ft | 250 kts | 107° |
| 2026-04-30 12:46 | 40.09138 | 4.17785 | 4150 ft | 245 kts | 103° |
| 2026-04-30 12:46 | 40.08800 | 4.19932 | 4022 ft | 238 kts | 103° |
| 2026-04-30 12:47 | 40.08466 | 4.22010 | 3906 ft | 230 kts | 104° |
| 2026-04-30 12:47 | 40.08088 | 4.23992 | 3799 ft | 221 kts | 115° |
| 2026-04-30 12:47 | 40.07507 | 4.25037 | 3723 ft | 212 kts | 143° |
| 2026-04-30 12:47 | 40.06172 | 4.25596 | 3654 ft | 203 kts | 184° |
| 2026-04-30 12:48 | 40.04782 | 4.25204 | 3560 ft | 206 kts | 188° |
| 2026-04-30 12:48 | 40.02970 | 4.24871 | 3374 ft | 195 kts | 185° |
| 2026-04-30 12:48 | 40.01642 | 4.24639 | 3136 ft | 190 kts | 185° |
| 2026-04-30 12:48 | 40.00350 | 4.24405 | 2890 ft | 185 kts | 186° |
| 2026-04-30 12:49 | 39.99494 | 4.24248 | 2756 ft | 184 kts | 185° |
| 2026-04-30 12:49 | 39.98216 | 4.24017 | 2478 ft | 185 kts | 186° |
| 2026-04-30 12:49 | 39.96949 | 4.23786 | 2226 ft | 181 kts | 187° |
| 2026-04-30 12:49 | 39.95722 | 4.23559 | 1996 ft | 176 kts | 187° |
| 2026-04-30 12:50 | 39.94548 | 4.23345 | 1787 ft | 163 kts | 187° |
| 2026-04-30 12:50 | 39.93462 | 4.23147 | 1558 ft | 150 kts | 187° |
| 2026-04-30 12:50 | 39.92489 | 4.22969 | 1373 ft | 137 kts | 187° |
| 2026-04-30 12:50 | 39.91554 | 4.22872 | 1205 ft | 133 kts | 181° |
| 2026-04-30 12:51 | 39.90641 | 4.22772 | 1056 ft | 132 kts | 188° |
| 2026-04-30 12:51 | 39.89728 | 4.22575 | 891 ft | 133 kts | 189° |
| 2026-04-30 12:51 | 39.88802 | 4.22375 | 696 ft | 136 kts | 188° |
| 2026-04-30 12:51 | 39.87861 | 4.22191 | 474 ft | 137 kts | 188° |
| 2026-04-30 12:52 | 39.86929 | 4.22003 | 310 ft | 132 kts | 188° |
| 2026-04-30 12:52 | 39.86181 | 4.21848 | 301 ft | 78 kts | 189° |
| 2026-04-30 12:52 | 39.85800 | 4.21769 | 297 ft | 48 kts | 188° |
| 2026-04-30 12:52 | 39.85569 | 4.21773 | 292 ft | 34 kts | 167° |
| 2026-04-30 12:53 | 39.85419 | 4.21843 | 282 ft | 12 kts | 148° |
| 2026-04-30 12:53 | 39.85428 | 4.21931 | 282 ft | 13 kts | 18° |
| 2026-04-30 12:53 | 39.85515 | 4.21950 | 284 ft | 12 kts | 13° |
| 2026-04-30 12:53 | 39.85598 | 4.21968 | 287 ft | 12 kts | 8° |
| 2026-04-30 12:54 | 39.85681 | 4.21985 | 292 ft | 13 kts | 9° |
| 2026-04-30 12:54 | 39.85804 | 4.22010 | 294 ft | 23 kts | 8° |
| 2026-04-30 12:54 | 39.85992 | 4.22048 | 295 ft | 32 kts | 9° |
| 2026-04-30 12:54 | 39.86224 | 4.22095 | 296 ft | 34 kts | 9° |
| 2026-04-30 12:55 | 39.86454 | 4.22143 | 294 ft | 32 kts | 9° |
| 2026-04-30 12:55 | 39.86545 | 4.22217 | 293 ft | 14 kts | 95° |
| 2026-04-30 12:55 | 39.86539 | 4.22263 | 289 ft | 2 kts | 98° |
| 2026-04-30 12:55 | 39.86536 | 4.22294 | 288 ft | 3 kts | 98° |
| 2026-04-30 12:56 | 39.86543 | 4.22320 | 288 ft | 5 kts | 49° |
| 2026-04-30 12:56 | 39.86583 | 4.22349 | 289 ft | 7 kts | 51° |
| 2026-04-30 12:56 | 39.86580 | 4.22393 | 287 ft | 8 kts | 99° |
| 2026-04-30 12:56 | 39.86576 | 4.22424 | 285 ft | 0 kts | 99° |